Time;durP1;ratioP1;P1;durP2;ratioP2;P2;SDS_P1;SDS_P2;PMS_P1;PMS_P2;Temp;Humidity;BMP_temperature;BMP_pressure;BME280_temperature;BME280_humidity;BME280_pressure;Samples;Min_cycle;Max_cycle;Signal;HPM_P1;HPM_P2
2021/05/13 00:02:16;;;;;;;8.82;6.68;;;;;;;;;;6185037;23;20075;-60
2021/05/13 00:04:43;;;;;;;9.27;6.50;;;;;;;;;;6185013;23;20013;-60
2021/05/13 00:07:10;;;;;;;12.55;6.72;;;;;;;;;;6185230;23;20024;-60
2021/05/13 00:09:41;;;;;;;8.05;6.82;;;;;;;;;;6185077;23;20184;-60
2021/05/13 00:12:14;;;;;;;10.30;6.40;;;;;;;;;;6185038;23;20376;-60
2021/05/13 00:14:41;;;;;;;12.15;7.22;;;;;;;;;;6185002;23;20467;-60
2021/05/13 00:17:08;;;;;;;11.90;6.90;;;;;;;;;;6184974;23;20005;-60
2021/05/13 00:19:35;;;;;;;10.52;8.13;;;;;;;;;;6185055;23;20349;-60
2021/05/13 00:22:01;;;;;;;9.32;7.20;;;;;;;;;;6185002;23;19997;-60
2021/05/13 00:24:28;;;;;;;8.80;6.85;;;;;;;;;;6185039;23;20433;-60
2021/05/13 00:26:59;;;;;;;11.25;7.90;;;;;;;;;;6184870;23;20428;-60
2021/05/13 00:29:27;;;;;;;9.55;7.55;;;;;;;;;;6184987;23;20076;-60
2021/05/13 00:31:54;;;;;;;9.52;8.52;;;;;;;;;;6184966;23;20428;-60
2021/05/13 00:34:20;;;;;;;10.10;7.80;;;;;;;;;;6184917;23;20001;-60
2021/05/13 00:36:47;;;;;;;11.35;8.15;;;;;;;;;;6184793;23;20009;-60
2021/05/13 00:39:14;;;;;;;9.25;8.32;;;;;;;;;;6184961;23;20009;-60
2021/05/13 00:41:41;;;;;;;10.75;7.93;;;;;;;;;;6184850;23;20041;-60
2021/05/13 00:44:08;;;;;;;11.57;8.63;;;;;;;;;;6184791;23;20016;-60
2021/05/13 00:46:35;;;;;;;10.63;8.88;;;;;;;;;;6184771;23;20064;-60
2021/05/13 00:49:09;;;;;;;13.07;8.57;;;;;;;;;;6184785;23;20005;-60
2021/05/13 00:51:36;;;;;;;10.88;8.80;;;;;;;;;;6185096;23;20088;-60
2021/05/13 00:54:03;;;;;;;12.50;8.67;;;;;;;;;;6185063;23;19997;-59
2021/05/13 00:56:30;;;;;;;10.47;8.47;;;;;;;;;;6185420;23;20428;-60
2021/05/13 00:59:01;;;;;;;10.33;9.20;;;;;;;;;;6186805;23;20127;-60
2021/05/13 01:01:39;;;;;;;11.63;8.80;;;;;;;;;;6186625;23;20012;-60
2021/05/13 01:04:06;;;;;;;11.47;7.63;;;;;;;;;;6186546;23;20013;-60
2021/05/13 01:06:35;;;;;;;9.00;7.87;;;;;;;;;;6186542;23;20023;-60
2021/05/13 01:09:07;;;;;;;11.10;8.33;;;;;;;;;;6186678;23;20012;-60
2021/05/13 01:11:35;;;;;;;9.57;7.80;;;;;;;;;;6186598;23;20028;-60
2021/05/13 01:14:13;;;;;;;9.43;8.03;;;;;;;;;;6186575;23;20001;-60
2021/05/13 01:16:49;;;;;;;9.93;7.77;;;;;;;;;;6186442;23;20079;-60
2021/05/13 01:19:17;;;;;;;11.33;8.03;;;;;;;;;;6186474;23;20024;-60
2021/05/13 01:21:44;;;;;;;12.93;8.73;;;;;;;;;;6186400;23;20332;-60
2021/05/13 01:24:12;;;;;;;9.57;8.03;;;;;;;;;;6186398;23;20024;-59
2021/05/13 01:26:39;;;;;;;10.53;7.40;;;;;;;;;;6186420;23;20020;-60
2021/05/13 01:29:05;;;;;;;9.57;8.20;;;;;;;;;;6186399;23;20009;-60
2021/05/13 01:31:32;;;;;;;10.40;8.40;;;;;;;;;;6160364;23;20306;-60
2021/05/13 01:33:59;;;;;;;12.90;9.63;;;;;;;;;;6186313;23;20314;-59
2021/05/13 01:36:26;;;;;;;14.00;8.53;;;;;;;;;;6186338;23;20096;-60
2021/05/13 01:38:56;;;;;;;12.60;7.80;;;;;;;;;;6186291;23;20371;-59
2021/05/13 01:41:23;;;;;;;13.47;8.60;;;;;;;;;;6186241;23;20079;-60
2021/05/13 01:43:50;;;;;;;10.53;7.90;;;;;;;;;;6186381;23;20009;-60
2021/05/13 01:46:17;;;;;;;12.07;8.10;;;;;;;;;;6186230;23;20035;-60
2021/05/13 01:48:44;;;;;;;14.30;8.20;;;;;;;;;;6186257;23;20009;-60
2021/05/13 01:51:11;;;;;;;11.67;9.07;;;;;;;;;;6187434;22;20433;-60
2021/05/13 01:53:42;;;;;;;10.67;9.47;;;;;;;;;;6186216;23;20327;-59
2021/05/13 01:56:09;;;;;;;12.20;9.37;;;;;;;;;;6186130;23;20001;-59
2021/05/13 01:58:36;;;;;;;14.03;9.63;;;;;;;;;;6186230;23;20004;-59
2021/05/13 02:01:04;;;;;;;15.50;10.47;;;;;;;;;;6186265;23;19997;-60
2021/05/13 02:03:32;;;;;;;18.17;9.83;;;;;;;;;;6186155;23;20036;-60
2021/05/13 02:05:59;;;;;;;11.03;9.13;;;;;;;;;;6186015;23;20005;-60
2021/05/13 02:08:26;;;;;;;12.40;9.83;;;;;;;;;;6186058;23;20005;-60
2021/05/13 02:10:53;;;;;;;10.33;9.23;;;;;;;;;;6186089;23;20006;-60
2021/05/13 02:13:19;;;;;;;12.53;10.40;;;;;;;;;;6186002;23;19997;-59
2021/05/13 02:15:46;;;;;;;10.30;9.20;;;;;;;;;;6186014;23;20005;-60
2021/05/13 02:18:13;;;;;;;10.80;9.23;;;;;;;;;;6186026;23;19997;-59
2021/05/13 02:20:40;;;;;;;12.93;9.60;;;;;;;;;;6186138;23;20007;-60
2021/05/13 02:23:06;;;;;;;13.50;9.57;;;;;;;;;;6185700;23;20313;-59
2021/05/13 02:25:35;;;;;;;10.47;9.37;;;;;;;;;;6185866;23;20302;-59
2021/05/13 02:28:02;;;;;;;11.80;9.57;;;;;;;;;;6185760;23;20009;-59
2021/05/13 02:30:29;;;;;;;13.10;10.07;;;;;;;;;;6186055;23;20001;-59
2021/05/13 02:32:56;;;;;;;11.67;10.47;;;;;;;;;;6185765;23;20428;-60
2021/05/13 02:35:23;;;;;;;13.27;10.40;;;;;;;;;;6185806;23;20432;-60
2021/05/13 02:37:50;;;;;;;13.13;10.30;;;;;;;;;;6185826;23;20005;-60
2021/05/13 02:40:17;;;;;;;12.17;10.87;;;;;;;;;;6185900;23;20424;-60
2021/05/13 02:42:44;;;;;;;12.50;10.17;;;;;;;;;;6185688;23;20020;-60
2021/05/13 02:45:12;;;;;;;11.13;9.93;;;;;;;;;;6185664;23;20447;-60
2021/05/13 02:47:38;;;;;;;11.77;9.87;;;;;;;;;;6185618;23;20124;-60
2021/05/13 02:50:06;;;;;;;10.57;9.13;;;;;;;;;;6185679;23;20332;-60
2021/05/13 02:52:33;;;;;;;10.77;9.47;;;;;;;;;;6187161;22;20092;-60
2021/05/13 02:55:00;;;;;;;14.27;10.00;;;;;;;;;;6185706;23;20032;-60
2021/05/13 02:57:27;;;;;;;14.77;9.17;;;;;;;;;;6185633;23;20084;-60
2021/05/13 03:02:49;;;;;;;10.03;8.03;;;;;;;;;;6153451;23;20055;-60
2021/05/13 03:05:17;;;;;;;9.80;7.23;;;;;;;;;;6185454;23;20368;-60
2021/05/13 03:07:49;;;;;;;9.23;7.53;;;;;;;;;;6185436;23;20455;-60
2021/05/13 03:10:21;;;;;;;11.33;8.13;;;;;;;;;;6185416;23;20084;-60
2021/05/13 03:12:50;;;;;;;9.57;7.07;;;;;;;;;;6185640;23;20076;-60
2021/05/13 03:15:17;;;;;;;9.53;6.43;;;;;;;;;;6185750;23;20005;-60
2021/05/13 03:17:53;;;;;;;7.07;6.07;;;;;;;;;;6185273;23;20461;-60
2021/05/13 03:20:24;;;;;;;6.10;5.20;;;;;;;;;;6185163;23;20012;-60
2021/05/13 03:22:55;;;;;;;7.37;5.53;;;;;;;;;;6185360;23;20009;-60
2021/05/13 03:25:34;;;;;;;8.20;5.67;;;;;;;;;;6185305;23;20005;-60
2021/05/13 03:28:09;;;;;;;8.07;7.07;;;;;;;;;;6185273;23;20024;-60
2021/05/13 03:30:44;;;;;;;11.20;7.87;;;;;;;;;;6185359;23;20008;-60
2021/05/13 03:33:11;;;;;;;14.18;7.63;;;;;;;;;;6185456;23;20432;-60
2021/05/13 03:35:39;;;;;;;9.23;7.63;;;;;;;;;;6185219;23;20001;-60
2021/05/13 03:38:06;;;;;;;9.23;7.83;;;;;;;;;;6185681;23;20055;-60
2021/05/13 03:40:33;;;;;;;10.10;7.87;;;;;;;;;;6185171;23;20001;-60
2021/05/13 03:43:01;;;;;;;10.87;8.37;;;;;;;;;;6185351;23;20009;-60
2021/05/13 03:45:28;;;;;;;9.67;7.50;;;;;;;;;;6185296;23;20001;-60
2021/05/13 03:47:55;;;;;;;9.27;7.80;;;;;;;;;;6185427;23;20005;-60
2021/05/13 03:50:22;;;;;;;9.73;7.37;;;;;;;;;;6158955;23;20033;-60
2021/05/13 03:52:56;;;;;;;7.93;7.13;;;;;;;;;;6186459;22;20013;-60
2021/05/13 03:55:23;;;;;;;7.43;6.17;;;;;;;;;;6185065;23;20020;-60
2021/05/13 03:57:50;;;;;;;7.47;5.53;;;;;;;;;;6185138;23;20060;-60
2021/05/13 04:00:19;;;;;;;9.53;5.90;;;;;;;;;;6185049;23;20043;-59
2021/05/13 04:02:46;;;;;;;11.90;9.37;;;;;;;;;;6185120;23;20023;-60
2021/05/13 04:05:13;;;;;;;7.30;6.50;;;;;;;;;;6185106;23;20508;-60
2021/05/13 04:07:40;;;;;;;7.10;6.40;;;;;;;;;;6185398;23;20063;-60
2021/05/13 04:10:10;;;;;;;9.13;8.00;;;;;;;;;;6185268;23;20188;-60
2021/05/13 04:12:38;;;;;;;9.03;6.83;;;;;;;;;;6185070;23;20080;-60
2021/05/13 04:15:06;;;;;;;7.90;6.10;;;;;;;;;;6184895;23;20005;-60
2021/05/13 04:17:33;;;;;;;8.23;7.00;;;;;;;;;;6185158;23;20321;-60
2021/05/13 04:20:00;;;;;;;6.47;5.77;;;;;;;;;;6185300;23;20087;-60
2021/05/13 04:22:26;;;;;;;7.37;5.63;;;;;;;;;;6185097;23;20076;-60
2021/05/13 04:24:53;;;;;;;7.80;5.47;;;;;;;;;;6184916;23;20443;-60
2021/05/13 04:27:20;;;;;;;6.57;5.53;;;;;;;;;;6184961;23;20377;-60
2021/05/13 04:29:47;;;;;;;7.17;5.73;;;;;;;;;;6185021;23;20025;-60
2021/05/13 04:32:14;;;;;;;8.13;6.33;;;;;;;;;;6186111;23;20039;-60
2021/05/13 04:34:41;;;;;;;8.10;7.20;;;;;;;;;;6186827;23;20009;-60
2021/05/13 04:37:08;;;;;;;9.50;6.47;;;;;;;;;;6186904;23;20008;-60
2021/05/13 04:39:35;;;;;;;7.50;6.40;;;;;;;;;;6186905;23;20429;-60
2021/05/13 04:42:01;;;;;;;11.53;7.37;;;;;;;;;;6186580;23;19997;-60
2021/05/13 04:44:28;;;;;;;10.03;7.10;;;;;;;;;;6186613;23;20009;-60
2021/05/13 04:46:59;;;;;;;8.60;6.40;;;;;;;;;;6186771;23;20032;-60
2021/05/13 04:49:26;;;;;;;7.57;6.50;;;;;;;;;;6186765;23;20004;-60
2021/05/13 04:52:00;;;;;;;8.10;6.53;;;;;;;;;;6187973;22;20020;-60
2021/05/13 04:54:26;;;;;;;7.27;6.30;;;;;;;;;;6186583;23;20332;-60
2021/05/13 04:56:54;;;;;;;8.13;6.57;;;;;;;;;;6186525;23;20016;-59
2021/05/13 04:59:20;;;;;;;7.97;6.83;;;;;;;;;;6186517;23;20005;-60
2021/05/13 05:01:47;;;;;;;7.37;6.37;;;;;;;;;;6186535;23;20005;-60
2021/05/13 05:04:14;;;;;;;7.80;7.00;;;;;;;;;;6186744;23;20036;-60
2021/05/13 05:06:41;;;;;;;7.97;6.80;;;;;;;;;;6186611;23;20001;-60
2021/05/13 05:09:07;;;;;;;10.13;6.77;;;;;;;;;;6186498;23;20012;-60
2021/05/13 05:11:34;;;;;;;7.37;6.67;;;;;;;;;;6186501;23;20076;-60
2021/05/13 05:14:02;;;;;;;8.53;7.00;;;;;;;;;;6186568;23;20009;-60
2021/05/13 05:16:29;;;;;;;7.50;6.27;;;;;;;;;;6186398;23;20007;-60
2021/05/13 05:18:56;;;;;;;7.87;5.90;;;;;;;;;;6186361;23;20016;-60
2021/05/13 05:21:22;;;;;;;8.43;7.03;;;;;;;;;;6186642;23;20004;-60
2021/05/13 05:23:49;;;;;;;9.37;6.70;;;;;;;;;;6186428;23;20027;-59
2021/05/13 05:26:16;;;;;;;9.10;7.00;;;;;;;;;;6186317;23;20006;-59
2021/05/13 05:28:44;;;;;;;9.10;7.10;;;;;;;;;;6186418;23;20028;-59
2021/05/13 05:31:11;;;;;;;9.03;7.23;;;;;;;;;;6186503;23;20001;-59
2021/05/13 05:33:37;;;;;;;8.37;7.17;;;;;;;;;;6186402;23;20114;-60
2021/05/13 05:36:04;;;;;;;9.10;7.50;;;;;;;;;;6186405;23;20077;-59
2021/05/13 05:38:31;;;;;;;8.80;7.40;;;;;;;;;;6186450;23;20001;-60
2021/05/13 05:40:58;;;;;;;7.73;6.17;;;;;;;;;;6186315;23;20436;-59
2021/05/13 05:43:25;;;;;;;8.20;7.37;;;;;;;;;;6186028;23;20036;-59
2021/05/13 05:45:51;;;;;;;11.60;8.40;;;;;;;;;;6186101;23;20055;-60
2021/05/13 05:48:18;;;;;;;12.07;8.67;;;;;;;;;;6186216;23;20001;-59
2021/05/13 05:50:45;;;;;;;11.17;8.47;;;;;;;;;;6186157;23;20074;-60
2021/05/13 05:53:12;;;;;;;8.77;7.17;;;;;;;;;;6187400;22;20336;-60
2021/05/13 05:55:40;;;;;;;8.97;7.77;;;;;;;;;;6159919;23;20003;-60
2021/05/13 05:58:07;;;;;;;11.10;7.50;;;;;;;;;;6186182;23;20009;-60
2021/05/13 06:00:34;;;;;;;8.17;6.40;;;;;;;;;;6186042;23;20001;-60
2021/05/13 06:03:01;;;;;;;7.70;6.33;;;;;;;;;;6186109;23;20028;-59
2021/05/13 06:05:28;;;;;;;8.63;6.43;;;;;;;;;;6185965;23;20084;-59
2021/05/13 06:07:55;;;;;;;8.80;6.60;;;;;;;;;;6185957;23;20016;-60
2021/05/13 06:10:22;;;;;;;7.13;6.13;;;;;;;;;;6186031;23;20028;-60
2021/05/13 06:12:49;;;;;;;8.10;6.60;;;;;;;;;;6186119;23;19997;-60
2021/05/13 06:15:17;;;;;;;6.97;6.00;;;;;;;;;;6185999;23;20005;-59
2021/05/13 06:17:44;;;;;;;7.77;6.33;;;;;;;;;;6186148;23;20000;-60
2021/05/13 06:20:31;;;;;;;8.10;6.20;;;;;;;;;;6186358;23;20013;-60
2021/05/13 06:22:58;;;;;;;11.83;7.47;;;;;;;;;;6185844;23;20348;-60
2021/05/13 06:25:26;;;;;;;9.70;7.63;;;;;;;;;;6185785;23;20005;-59
2021/05/13 06:27:53;;;;;;;7.63;6.23;;;;;;;;;;6185793;23;20001;-59
2021/05/13 06:30:20;;;;;;;8.10;6.30;;;;;;;;;;6185786;23;20005;-59
2021/05/13 06:32:47;;;;;;;9.77;6.40;;;;;;;;;;6185944;23;20005;-59
2021/05/13 06:35:16;;;;;;;8.20;6.43;;;;;;;;;;6185677;23;20024;-60
2021/05/13 06:37:42;;;;;;;11.20;6.00;;;;;;;;;;6185887;23;20004;-59
2021/05/13 06:40:09;;;;;;;9.63;6.40;;;;;;;;;;6185721;23;20429;-59
2021/05/13 06:42:36;;;;;;;7.07;5.40;;;;;;;;;;6185719;23;20005;-60
2021/05/13 06:45:07;;;;;;;6.67;5.63;;;;;;;;;;6185801;23;20080;-59
2021/05/13 06:47:35;;;;;;;7.50;5.90;;;;;;;;;;6185770;23;20011;-59
2021/05/13 06:50:02;;;;;;;6.83;5.67;;;;;;;;;;6185570;23;20001;-60
2021/05/13 06:52:29;;;;;;;6.13;5.30;;;;;;;;;;6187332;22;20021;-60
2021/05/13 06:54:56;;;;;;;7.00;5.90;;;;;;;;;;6185110;23;20020;-59
2021/05/13 06:57:22;;;;;;;7.53;6.03;;;;;;;;;;6185495;23;20033;-59
2021/05/13 06:59:49;;;;;;;9.40;7.50;;;;;;;;;;6185519;23;20009;-59
2021/05/13 07:02:16;;;;;;;9.13;7.87;;;;;;;;;;6185530;23;20059;-60
2021/05/13 07:04:43;;;;;;;8.90;6.17;;;;;;;;;;6185418;23;20039;-60
2021/05/13 07:07:10;;;;;;;7.67;5.83;;;;;;;;;;6185596;23;20064;-60
2021/05/13 07:09:36;;;;;;;6.83;5.60;;;;;;;;;;6185543;23;20048;-59
2021/05/13 07:12:03;;;;;;;7.80;6.17;;;;;;;;;;6185436;23;20044;-60
2021/05/13 07:14:30;;;;;;;7.50;5.83;;;;;;;;;;6185024;23;20368;-59
2021/05/13 07:16:57;;;;;;;7.20;5.67;;;;;;;;;;6185346;23;20005;-59
2021/05/13 07:19:24;;;;;;;6.17;5.10;;;;;;;;;;6185556;23;20024;-60
2021/05/13 07:21:51;;;;;;;7.60;5.63;;;;;;;;;;6185276;23;20008;-59
2021/05/13 07:24:17;;;;;;;6.33;5.27;;;;;;;;;;6185315;23;20009;-59
2021/05/13 07:26:44;;;;;;;7.23;5.73;;;;;;;;;;6185400;23;20033;-60
2021/05/13 07:29:12;;;;;;;6.20;4.80;;;;;;;;;;6185276;23;20514;-59
2021/05/13 07:31:39;;;;;;;5.87;4.53;;;;;;;;;;6185632;23;20060;-59
2021/05/13 07:34:06;;;;;;;5.90;4.73;;;;;;;;;;6185304;23;20009;-60
2021/05/13 07:36:33;;;;;;;6.27;4.50;;;;;;;;;;6185218;23;19997;-59
2021/05/13 07:39:00;;;;;;;5.77;4.43;;;;;;;;;;6185394;23;20432;-60
2021/05/13 07:41:26;;;;;;;5.70;4.47;;;;;;;;;;6185192;23;20009;-59
2021/05/13 07:43:56;;;;;;;7.20;5.17;;;;;;;;;;6185172;23;20012;-60
2021/05/13 07:46:26;;;;;;;7.53;4.87;;;;;;;;;;6184959;23;20001;-60
2021/05/13 07:48:53;;;;;;;5.73;4.77;;;;;;;;;;6185150;23;20009;-60
2021/05/13 07:51:22;;;;;;;5.57;4.53;;;;;;;;;;6185275;23;20001;-60
2021/05/13 07:53:49;;;;;;;6.30;4.90;;;;;;;;;;6186074;22;20016;-60
2021/05/13 07:56:16;;;;;;;5.73;4.40;;;;;;;;;;6185244;23;20001;-60
2021/05/13 07:58:43;;;;;;;6.20;4.73;;;;;;;;;;6185096;23;20008;-59
2021/05/13 08:01:09;;;;;;;5.53;4.10;;;;;;;;;;6185274;23;19997;-59
2021/05/13 08:03:36;;;;;;;5.33;4.10;;;;;;;;;;6184999;23;20451;-60
2021/05/13 08:06:03;;;;;;;4.67;3.93;;;;;;;;;;6186978;23;20001;-60
2021/05/13 08:08:30;;;;;;;5.30;4.33;;;;;;;;;;6188391;23;20428;-60
2021/05/13 08:10:57;;;;;;;5.63;4.50;;;;;;;;;;6188377;23;20001;-59
2021/05/13 08:13:23;;;;;;;5.07;4.13;;;;;;;;;;6188823;23;20325;-60
2021/05/13 08:15:50;;;;;;;5.17;4.17;;;;;;;;;;6188425;23;20443;-59
2021/05/13 08:18:17;;;;;;;5.03;3.60;;;;;;;;;;6188403;23;20001;-59
2021/05/13 08:20:44;;;;;;;5.03;4.10;;;;;;;;;;6188064;23;20001;-59
2021/05/13 08:23:11;;;;;;;4.60;3.47;;;;;;;;;;6188219;23;20021;-60
2021/05/13 08:25:38;;;;;;;5.60;4.30;;;;;;;;;;6188491;23;20001;-59
2021/05/13 08:28:04;;;;;;;5.13;4.00;;;;;;;;;;6188465;23;20062;-59
2021/05/13 08:30:31;;;;;;;6.57;4.83;;;;;;;;;;6188227;23;20001;-59
2021/05/13 08:32:58;;;;;;;6.10;4.67;;;;;;;;;;6188271;23;20009;-60
2021/05/13 08:35:25;;;;;;;6.50;4.33;;;;;;;;;;6188159;23;20005;-59
2021/05/13 08:37:52;;;;;;;4.97;4.10;;;;;;;;;;6188370;23;20009;-59
2021/05/13 08:40:20;;;;;;;6.20;4.03;;;;;;;;;;6188171;23;20005;-59
2021/05/13 08:42:47;;;;;;;5.67;4.07;;;;;;;;;;6188163;23;20084;-59
2021/05/13 08:45:27;;;;;;;5.77;5.17;;;;;;;;;;6188121;23;20005;-60
2021/05/13 08:47:54;;;;;;;6.07;5.03;;;;;;;;;;6188727;23;20005;-59
2021/05/13 08:50:21;;;;;;;6.23;5.07;;;;;;;;;;6188155;23;20028;-59
2021/05/13 08:52:47;;;;;;;5.33;4.53;;;;;;;;;;6189611;22;20040;-59
2021/05/13 08:55:15;;;;;;;6.97;4.20;;;;;;;;;;6188240;23;20001;-59
2021/05/13 08:57:42;;;;;;;4.97;4.03;;;;;;;;;;6188109;23;20005;-59
2021/05/13 09:00:09;;;;;;;6.23;4.43;;;;;;;;;;6188099;23;20008;-59
2021/05/13 09:02:36;;;;;;;7.57;4.20;;;;;;;;;;6188161;23;20433;-59
2021/05/13 09:05:03;;;;;;;5.40;4.03;;;;;;;;;;6188063;23;20021;-59
2021/05/13 09:07:31;;;;;;;4.77;4.20;;;;;;;;;;6188388;23;20005;-60
2021/05/13 09:10:03;;;;;;;5.23;4.00;;;;;;;;;;6188076;23;20056;-59
2021/05/13 09:12:35;;;;;;;6.00;4.03;;;;;;;;;;6187917;23;20005;-59
2021/05/13 09:15:14;;;;;;;5.67;4.67;;;;;;;;;;6187983;23;20180;-59
2021/05/13 09:17:43;;;;;;;5.90;4.47;;;;;;;;;;6186928;23;20261;-59
2021/05/13 09:20:29;;;;;;;5.57;4.33;;;;;;;;;;6185086;23;20028;-59
2021/05/13 09:23:16;;;;;;;5.13;4.37;;;;;;;;;;6186345;23;20056;-59
2021/05/13 09:25:44;;;;;;;5.63;4.67;;;;;;;;;;6186384;23;20373;-59
2021/05/13 09:28:11;;;;;;;4.83;4.20;;;;;;;;;;6186596;23;20390;-59
2021/05/13 09:30:38;;;;;;;6.17;4.23;;;;;;;;;;6186593;23;20076;-59
2021/05/13 09:33:08;;;;;;;5.80;4.53;;;;;;;;;;6186524;23;20001;-59
2021/05/13 09:35:37;;;;;;;5.90;4.60;;;;;;;;;;6186352;23;20420;-59
2021/05/13 09:38:08;;;;;;;5.77;4.57;;;;;;;;;;6186692;23;20124;-59
2021/05/13 09:40:35;;;;;;;7.97;4.03;;;;;;;;;;6186349;23;20011;-59
2021/05/13 09:43:11;;;;;;;5.53;4.10;;;;;;;;;;6186336;23;20012;-59
2021/05/13 09:45:45;;;;;;;6.40;4.50;;;;;;;;;;6186224;23;20060;-59
2021/05/13 09:48:12;;;;;;;7.17;4.53;;;;;;;;;;6186404;23;20076;-59
2021/05/13 09:50:38;;;;;;;4.93;4.17;;;;;;;;;;6186199;23;20025;-60
2021/05/13 09:53:06;;;;;;;5.90;4.77;;;;;;;;;;6187761;22;20104;-61
2021/05/13 09:55:34;;;;;;;7.63;4.33;;;;;;;;;;6186149;23;20033;-61
2021/05/13 09:58:04;;;;;;;5.83;4.40;;;;;;;;;;6186143;23;20084;-61
2021/05/13 10:00:37;;;;;;;6.27;4.90;;;;;;;;;;6186116;23;20302;-61
2021/05/13 10:03:08;;;;;;;6.00;4.37;;;;;;;;;;6185994;23;20012;-60
2021/05/13 10:05:35;;;;;;;4.67;3.83;;;;;;;;;;6186034;23;20006;-60
2021/05/13 10:08:02;;;;;;;4.97;3.80;;;;;;;;;;6186230;23;20005;-60
2021/05/13 10:10:29;;;;;;;4.43;3.63;;;;;;;;;;6186532;23;20001;-60
2021/05/13 10:12:57;;;;;;;5.57;4.77;;;;;;;;;;6185959;23;20302;-60
2021/05/13 10:15:26;;;;;;;5.67;4.20;;;;;;;;;;6185913;23;20009;-60
2021/05/13 10:17:55;;;;;;;4.50;3.57;;;;;;;;;;6186304;23;20005;-60
2021/05/13 10:20:23;;;;;;;4.50;3.50;;;;;;;;;;6185973;23;20458;-60
2021/05/13 10:22:51;;;;;;;6.53;3.87;;;;;;;;;;6185779;23;20008;-60
2021/05/13 10:25:25;;;;;;;4.73;3.60;;;;;;;;;;6185838;23;20137;-60
2021/05/13 10:27:53;;;;;;;4.75;3.60;;;;;;;;;;6185078;23;20076;-60
2021/05/13 10:30:24;;;;;;;7.40;5.20;;;;;;;;;;6185436;23;20005;-60
2021/05/13 10:33:06;;;;;;;6.43;5.13;;;;;;;;;;6185773;23;20005;-60
2021/05/13 10:35:33;;;;;;;6.40;5.10;;;;;;;;;;6185773;23;20005;-60
2021/05/13 10:38:03;;;;;;;7.87;5.10;;;;;;;;;;6185749;23;20001;-60
2021/05/13 10:41:03;;;;;;;7.33;4.87;;;;;;;;;;6185750;23;20005;-60
2021/05/13 10:43:30;;;;;;;6.47;4.90;;;;;;;;;;6185600;23;20071;-60
2021/05/13 10:45:57;;;;;;;6.93;4.77;;;;;;;;;;6185634;23;20071;-60
2021/05/13 10:48:28;;;;;;;5.83;4.90;;;;;;;;;;6185794;23;20001;-60
2021/05/13 10:51:02;;;;;;;5.57;3.47;;;;;;;;;;6185561;23;20001;-60
2021/05/13 10:53:48;;;;;;;4.40;3.20;;;;;;;;;;6186623;22;20024;-60
2021/05/13 10:56:34;;;;;;;3.93;3.00;;;;;;;;;;6185759;23;20005;-60
2021/05/13 10:59:10;;;;;;;4.03;3.07;;;;;;;;;;6185772;23;20003;-60
2021/05/13 11:01:55;;;;;;;4.20;3.23;;;;;;;;;;6185515;23;20373;-60
2021/05/13 11:04:22;;;;;;;5.15;3.80;;;;;;;;;;6185302;23;20024;-60
2021/05/13 11:06:49;;;;;;;4.57;3.57;;;;;;;;;;6185494;23;20076;-60
2021/05/13 11:09:34;;;;;;;5.13;4.40;;;;;;;;;;6185594;23;20005;-60
2021/05/13 11:12:11;;;;;;;4.95;4.10;;;;;;;;;;6185427;23;20040;-60
2021/05/13 11:15:14;;;;;;;5.43;4.53;;;;;;;;;;6185379;23;20005;-60
2021/05/13 11:17:56;;;;;;;6.33;5.20;;;;;;;;;;6185634;23;20005;-60
2021/05/13 11:20:32;;;;;;;6.60;5.20;;;;;;;;;;6185556;23;20440;-59
2021/05/13 11:23:03;;;;;;;5.23;3.73;;;;;;;;;;6185220;23;20368;-59
2021/05/13 11:25:41;;;;;;;5.10;3.90;;;;;;;;;;6185391;23;20005;-60
2021/05/13 11:28:17;;;;;;;5.37;3.53;;;;;;;;;;6185410;23;19997;-60
2021/05/13 11:30:43;;;;;;;5.47;3.33;;;;;;;;;;6185402;23;20005;-60
2021/05/13 11:33:10;;;;;;;4.53;3.20;;;;;;;;;;6185342;23;20011;-60
2021/05/13 11:35:37;;;;;;;4.70;3.37;;;;;;;;;;6186126;23;19997;-60
2021/05/13 11:38:21;;;;;;;4.07;3.00;;;;;;;;;;6185221;23;20028;-59
2021/05/13 11:40:49;;;;;;;4.53;3.40;;;;;;;;;;6184992;23;20442;-60
2021/05/13 11:43:20;;;;;;;4.03;2.90;;;;;;;;;;6185132;23;20016;-60
2021/05/13 11:45:48;;;;;;;3.97;3.00;;;;;;;;;;6185224;23;20024;-61
2021/05/13 11:48:21;;;;;;;4.90;3.27;;;;;;;;;;6185166;23;20009;-60
2021/05/13 11:50:48;;;;;;;5.93;3.10;;;;;;;;;;6185291;23;19997;-60
2021/05/13 11:53:15;;;;;;;4.83;3.73;;;;;;;;;;6186694;22;20021;-61
2021/05/13 11:55:42;;;;;;;6.13;3.40;;;;;;;;;;6185279;23;20021;-61
2021/05/13 11:58:13;;;;;;;9.03;3.97;;;;;;;;;;6186021;23;20028;-61
2021/05/13 12:00:40;;;;;;;5.57;3.93;;;;;;;;;;6185148;23;20002;-61
2021/05/13 12:03:15;;;;;;;4.97;3.63;;;;;;;;;;6185011;23;20322;-61
2021/05/13 12:05:46;;;;;;;5.18;3.60;;;;;;;;;;6185157;23;20024;-61
2021/05/13 12:08:22;;;;;;;5.33;4.07;;;;;;;;;;6185210;23;20032;-61
2021/05/13 12:10:50;;;;;;;6.40;4.27;;;;;;;;;;6185054;23;20001;-61
2021/05/13 12:13:17;;;;;;;5.00;3.53;;;;;;;;;;6185060;23;20340;-61
2021/05/13 12:15:44;;;;;;;6.07;4.10;;;;;;;;;;6185088;23;20425;-60
2021/05/13 12:18:11;;;;;;;7.43;4.70;;;;;;;;;;6185113;23;20009;-61
2021/05/13 12:20:39;;;;;;;6.13;3.90;;;;;;;;;;6184992;23;20328;-60
2021/05/13 12:23:06;;;;;;;5.87;4.07;;;;;;;;;;6184843;23;20017;-60
2021/05/13 12:25:34;;;;;;;5.10;3.87;;;;;;;;;;6184981;23;20007;-60
2021/05/13 12:28:00;;;;;;;5.40;4.17;;;;;;;;;;6185108;23;20008;-60
2021/05/13 12:30:27;;;;;;;5.53;4.10;;;;;;;;;;6185108;23;20004;-60
2021/05/13 12:32:54;;;;;;;6.00;3.90;;;;;;;;;;6184932;23;20032;-60
2021/05/13 12:35:22;;;;;;;5.33;4.00;;;;;;;;;;6184819;23;20015;-60
2021/05/13 12:37:49;;;;;;;6.40;3.93;;;;;;;;;;6184865;23;20051;-60
2021/05/13 12:40:17;;;;;;;7.13;3.70;;;;;;;;;;6185042;23;20009;-60
2021/05/13 12:42:45;;;;;;;8.87;4.93;;;;;;;;;;6185008;23;20041;-60
2021/05/13 12:45:15;;;;;;;5.97;4.83;;;;;;;;;;6184658;23;20002;-60
2021/05/13 12:47:42;;;;;;;5.67;4.27;;;;;;;;;;6184839;23;20080;-60
2021/05/13 12:50:09;;;;;;;7.07;4.57;;;;;;;;;;6184893;23;20071;-60
2021/05/13 12:52:37;;;;;;;6.93;4.63;;;;;;;;;;6186851;22;20009;-60
2021/05/13 12:55:11;;;;;;;5.53;4.07;;;;;;;;;;6186671;23;20009;-60
2021/05/13 12:57:45;;;;;;;5.07;4.03;;;;;;;;;;6187186;23;20005;-60
2021/05/13 13:00:12;;;;;;;5.27;3.83;;;;;;;;;;6186587;23;20306;-60
2021/05/13 13:02:39;;;;;;;5.50;4.00;;;;;;;;;;6186626;23;20096;-60
2021/05/13 13:05:07;;;;;;;5.43;3.80;;;;;;;;;;6186751;23;20500;-60
2021/05/13 13:07:34;;;;;;;5.47;4.43;;;;;;;;;;6186666;23;20012;-60
2021/05/13 13:10:19;;;;;;;5.87;4.33;;;;;;;;;;6186799;23;19997;-60
2021/05/13 13:12:46;;;;;;;7.35;4.70;;;;;;;;;;6186628;23;20016;-60
2021/05/13 13:15:31;;;;;;;6.03;3.83;;;;;;;;;;6186487;23;20056;-60
2021/05/13 13:18:01;;;;;;;6.18;3.92;;;;;;;;;;6186560;23;20416;-60
2021/05/13 13:20:30;;;;;;;7.30;4.27;;;;;;;;;;6186521;23;20009;-60
2021/05/13 13:23:14;;;;;;;5.37;4.07;;;;;;;;;;6186306;23;20056;-60
2021/05/13 13:25:41;;;;;;;5.90;4.22;;;;;;;;;;6186677;23;20001;-60
2021/05/13 13:28:09;;;;;;;6.43;3.53;;;;;;;;;;6160081;23;20001;-60
2021/05/13 13:30:36;;;;;;;5.60;4.03;;;;;;;;;;6186483;23;20074;-60
2021/05/13 13:33:23;;;;;;;5.17;4.00;;;;;;;;;;6186553;23;20428;-60
2021/05/13 13:35:51;;;;;;;4.73;3.70;;;;;;;;;;6186383;23;20420;-60
2021/05/13 13:38:18;;;;;;;5.17;3.80;;;;;;;;;;6186269;23;20324;-60
2021/05/13 13:40:46;;;;;;;6.20;3.90;;;;;;;;;;6186488;23;20008;-59
2021/05/13 13:43:14;;;;;;;6.53;3.73;;;;;;;;;;6186216;23;20012;-60
2021/05/13 13:45:41;;;;;;;4.87;3.50;;;;;;;;;;6186133;23;20006;-60
2021/05/13 13:48:08;;;;;;;4.93;3.70;;;;;;;;;;6186396;23;20008;-60
2021/05/13 13:50:39;;;;;;;7.07;3.70;;;;;;;;;;6186224;23;20004;-59
2021/05/13 13:53:06;;;;;;;5.23;3.47;;;;;;;;;;6187670;22;20100;-60
2021/05/13 13:55:34;;;;;;;4.63;3.00;;;;;;;;;;6186135;23;20336;-59
2021/05/13 13:58:02;;;;;;;4.97;3.67;;;;;;;;;;6186376;23;20001;-59
2021/05/13 14:00:30;;;;;;;4.47;3.47;;;;;;;;;;6186063;23;20005;-59
2021/05/13 14:03:02;;;;;;;7.03;3.77;;;;;;;;;;6186000;23;20001;-60
2021/05/13 14:05:30;;;;;;;5.37;3.40;;;;;;;;;;6185950;23;20472;-59
2021/05/13 14:07:58;;;;;;;4.80;3.70;;;;;;;;;;6186005;23;20353;-59
2021/05/13 14:10:28;;;;;;;7.03;3.20;;;;;;;;;;6186246;23;20079;-59
2021/05/13 14:12:59;;;;;;;5.83;3.53;;;;;;;;;;6185899;23;20005;-60
2021/05/13 14:15:48;;;;;;;4.30;3.00;;;;;;;;;;6185891;23;20043;-59
2021/05/13 14:18:18;;;;;;;5.27;3.73;;;;;;;;;;6186007;23;20064;-58
2021/05/13 14:21:19;;;;;;;4.20;3.20;;;;;;;;;;6186096;23;20225;-59
2021/05/13 14:23:52;;;;;;;9.80;3.53;;;;;;;;;;6163611;23;20067;-58
2021/05/13 14:26:24;;;;;;;4.83;3.27;;;;;;;;;;6185896;23;20012;-59
2021/05/13 14:29:10;;;;;;;4.30;2.97;;;;;;;;;;6186103;23;20333;-59
2021/05/13 15:32:35;;;;;;;3.47;2.30;;;;;;;;;;6200389;22;20073;-58
2021/05/13 15:35:07;;;;;;;4.87;3.47;;;;;;;;;;6185305;23;20055;-58
2021/05/13 15:37:51;;;;;;;3.40;2.40;;;;;;;;;;6185404;23;20416;-58
2021/05/13 15:40:22;;;;;;;3.93;2.37;;;;;;;;;;6185832;23;20029;-58
2021/05/13 15:42:50;;;;;;;3.13;2.20;;;;;;;;;;6185258;23;20324;-58
2021/05/13 15:45:24;;;;;;;3.27;2.17;;;;;;;;;;6185269;23;20028;-58
2021/05/13 15:47:56;;;;;;;3.95;2.30;;;;;;;;;;6184754;23;20028;-58
2021/05/13 15:50:34;;;;;;;4.20;2.53;;;;;;;;;;6185071;23;20427;-58
2021/05/13 15:53:01;;;;;;;6.27;4.40;;;;;;;;;;6171925;23;20012;-59
2021/05/13 15:55:32;;;;;;;6.67;2.70;;;;;;;;;;6185291;23;20072;-60
2021/05/13 15:58:03;;;;;;;2.73;1.90;;;;;;;;;;6185378;23;20424;-58